sensor_id;sensor_type;location;lat;lon;timestamp;temperature;humidity
3816;DHT22;1923;48.154;11.536;2023-03-07T00:00:49;5.10;99.90
3816;DHT22;1923;48.154;11.536;2023-03-07T00:03:17;5.00;99.90
3816;DHT22;1923;48.154;11.536;2023-03-07T00:05:46;5.00;99.90
3816;DHT22;1923;48.154;11.536;2023-03-07T00:08:14;5.00;99.90
3816;DHT22;1923;48.154;11.536;2023-03-07T00:10:42;5.10;99.90
3816;DHT22;1923;48.154;11.536;2023-03-07T00:13:12;5.10;99.90
3816;DHT22;1923;48.154;11.536;2023-03-07T00:15:40;5.00;99.90
3816;DHT22;1923;48.154;11.536;2023-03-07T00:18:08;5.10;99.90
3816;DHT22;1923;48.154;11.536;2023-03-07T00:20:36;5.00;99.90
3816;DHT22;1923;48.154;11.536;2023-03-07T00:23:04;5.10;99.90
3816;DHT22;1923;48.154;11.536;2023-03-07T00:25:32;5.10;99.90
3816;DHT22;1923;48.154;11.536;2023-03-07T00:28:00;5.10;99.90
3816;DHT22;1923;48.154;11.536;2023-03-07T00:30:29;5.10;99.90
3816;DHT22;1923;48.154;11.536;2023-03-07T00:32:58;5.10;99.90
3816;DHT22;1923;48.154;11.536;2023-03-07T00:35:26;5.20;99.90
3816;DHT22;1923;48.154;11.536;2023-03-07T00:37:54;5.20;99.90
3816;DHT22;1923;48.154;11.536;2023-03-07T00:40:22;5.10;99.90
3816;DHT22;1923;48.154;11.536;2023-03-07T00:42:50;5.00;99.90
3816;DHT22;1923;48.154;11.536;2023-03-07T00:45:18;4.90;99.90
3816;DHT22;1923;48.154;11.536;2023-03-07T00:47:47;4.80;99.90
3816;DHT22;1923;48.154;11.536;2023-03-07T00:50:15;4.80;99.90
3816;DHT22;1923;48.154;11.536;2023-03-07T00:52:43;4.90;99.90
3816;DHT22;1923;48.154;11.536;2023-03-07T00:55:11;4.80;99.90
3816;DHT22;1923;48.154;11.536;2023-03-07T00:57:39;4.80;99.90
3816;DHT22;1923;48.154;11.536;2023-03-07T01:00:09;4.80;99.90
3816;DHT22;1923;48.154;11.536;2023-03-07T01:02:37;4.70;99.90
3816;DHT22;1923;48.154;11.536;2023-03-07T01:05:07;4.80;99.90
3816;DHT22;1923;48.154;11.536;2023-03-07T01:07:35;4.70;99.90
3816;DHT22;1923;48.154;11.536;2023-03-07T01:10:04;4.80;99.90
3816;DHT22;1923;48.154;11.536;2023-03-07T01:12:32;4.70;99.90
3816;DHT22;1923;48.154;11.536;2023-03-07T01:15:00;4.60;99.90
3816;DHT22;1923;48.154;11.536;2023-03-07T01:17:32;4.60;99.90
3816;DHT22;1923;48.154;11.536;2023-03-07T01:20:00;4.70;99.90
3816;DHT22;1923;48.154;11.536;2023-03-07T01:22:32;4.60;99.90
3816;DHT22;1923;48.154;11.536;2023-03-07T01:25:00;4.60;99.90
3816;DHT22;1923;48.154;11.536;2023-03-07T01:27:28;4.50;99.90
3816;DHT22;1923;48.154;11.536;2023-03-07T01:29:56;4.60;99.90
3816;DHT22;1923;48.154;11.536;2023-03-07T01:32:24;4.60;99.90
3816;DHT22;1923;48.154;11.536;2023-03-07T01:34:52;4.60;99.90
3816;DHT22;1923;48.154;11.536;2023-03-07T01:37:21;4.50;99.90
3816;DHT22;1923;48.154;11.536;2023-03-07T01:39:51;4.60;99.90
3816;DHT22;1923;48.154;11.536;2023-03-07T01:42:20;4.60;99.90
3816;DHT22;1923;48.154;11.536;2023-03-07T01:45:03;4.60;99.90
3816;DHT22;1923;48.154;11.536;2023-03-07T01:47:31;4.60;99.90
3816;DHT22;1923;48.154;11.536;2023-03-07T01:50:02;4.60;99.90
3816;DHT22;1923;48.154;11.536;2023-03-07T01:52:33;4.70;99.90
3816;DHT22;1923;48.154;11.536;2023-03-07T01:55:06;4.80;99.90
3816;DHT22;1923;48.154;11.536;2023-03-07T01:57:38;4.70;99.90
3816;DHT22;1923;48.154;11.536;2023-03-07T02:00:10;4.70;99.90
3816;DHT22;1923;48.154;11.536;2023-03-07T02:02:41;4.70;99.90
3816;DHT22;1923;48.154;11.536;2023-03-07T02:05:13;4.80;99.90
3816;DHT22;1923;48.154;11.536;2023-03-07T02:07:45;4.70;99.90
3816;DHT22;1923;48.154;11.536;2023-03-07T02:10:18;4.70;99.90
3816;DHT22;1923;48.154;11.536;2023-03-07T02:12:47;4.80;99.90
3816;DHT22;1923;48.154;11.536;2023-03-07T02:15:15;4.70;99.90
3816;DHT22;1923;48.154;11.536;2023-03-07T02:17:44;4.70;99.90
3816;DHT22;1923;48.154;11.536;2023-03-07T02:20:22;4.80;99.90
3816;DHT22;1923;48.154;11.536;2023-03-07T02:22:53;4.70;99.90
3816;DHT22;1923;48.154;11.536;2023-03-07T02:25:27;4.80;99.90
3816;DHT22;1923;48.154;11.536;2023-03-07T02:28:00;4.80;99.90
3816;DHT22;1923;48.154;11.536;2023-03-07T02:30:30;4.80;99.90
3816;DHT22;1923;48.154;11.536;2023-03-07T02:32:58;4.80;99.90
3816;DHT22;1923;48.154;11.536;2023-03-07T02:35:26;4.80;99.90
3816;DHT22;1923;48.154;11.536;2023-03-07T02:37:57;4.80;99.90
3816;DHT22;1923;48.154;11.536;2023-03-07T02:40:28;4.90;99.90
3816;DHT22;1923;48.154;11.536;2023-03-07T02:43:01;4.80;99.90
3816;DHT22;1923;48.154;11.536;2023-03-07T02:45:31;4.80;99.90
3816;DHT22;1923;48.154;11.536;2023-03-07T02:47:59;4.80;99.90
3816;DHT22;1923;48.154;11.536;2023-03-07T02:50:27;4.90;99.90
3816;DHT22;1923;48.154;11.536;2023-03-07T02:52:55;4.70;99.90
3816;DHT22;1923;48.154;11.536;2023-03-07T02:55:23;4.80;99.90
3816;DHT22;1923;48.154;11.536;2023-03-07T02:57:51;4.90;99.90
3816;DHT22;1923;48.154;11.536;2023-03-07T03:00:21;4.90;99.90
3816;DHT22;1923;48.154;11.536;2023-03-07T03:02:50;4.90;99.90
3816;DHT22;1923;48.154;11.536;2023-03-07T03:05:18;4.90;99.90
3816;DHT22;1923;48.154;11.536;2023-03-07T03:07:46;4.80;99.90
3816;DHT22;1923;48.154;11.536;2023-03-07T03:10:15;4.80;99.90
3816;DHT22;1923;48.154;11.536;2023-03-07T03:12:43;4.80;99.90
3816;DHT22;1923;48.154;11.536;2023-03-07T03:15:11;4.80;99.90
3816;DHT22;1923;48.154;11.536;2023-03-07T03:17:41;4.80;99.90
3816;DHT22;1923;48.154;11.536;2023-03-07T03:20:10;4.80;99.90
3816;DHT22;1923;48.154;11.536;2023-03-07T03:22:39;4.70;99.90
3816;DHT22;1923;48.154;11.536;2023-03-07T03:25:09;4.70;99.90
3816;DHT22;1923;48.154;11.536;2023-03-07T03:27:37;4.70;99.90
3816;DHT22;1923;48.154;11.536;2023-03-07T03:30:08;4.90;99.90
3816;DHT22;1923;48.154;11.536;2023-03-07T03:32:37;4.80;99.90
3816;DHT22;1923;48.154;11.536;2023-03-07T03:35:07;4.80;99.90
3816;DHT22;1923;48.154;11.536;2023-03-07T03:37:35;4.70;99.90
3816;DHT22;1923;48.154;11.536;2023-03-07T03:40:05;4.80;99.90
3816;DHT22;1923;48.154;11.536;2023-03-07T03:42:40;4.80;99.90
3816;DHT22;1923;48.154;11.536;2023-03-07T03:45:09;4.90;99.90
3816;DHT22;1923;48.154;11.536;2023-03-07T03:47:38;4.80;99.90
3816;DHT22;1923;48.154;11.536;2023-03-07T03:50:08;4.80;99.90
3816;DHT22;1923;48.154;11.536;2023-03-07T03:52:37;4.80;99.90
3816;DHT22;1923;48.154;11.536;2023-03-07T03:55:05;4.80;99.90
3816;DHT22;1923;48.154;11.536;2023-03-07T03:57:33;4.90;99.90
3816;DHT22;1923;48.154;11.536;2023-03-07T04:00:02;4.90;99.90
3816;DHT22;1923;48.154;11.536;2023-03-07T04:02:34;4.90;99.90
3816;DHT22;1923;48.154;11.536;2023-03-07T04:05:02;4.90;99.90
3816;DHT22;1923;48.154;11.536;2023-03-07T04:07:32;4.90;99.90
3816;DHT22;1923;48.154;11.536;2023-03-07T04:10:00;4.90;99.90
3816;DHT22;1923;48.154;11.536;2023-03-07T04:12:28;4.80;99.90
3816;DHT22;1923;48.154;11.536;2023-03-07T04:14:56;4.70;99.90
3816;DHT22;1923;48.154;11.536;2023-03-07T04:17:24;4.80;99.90
3816;DHT22;1923;48.154;11.536;2023-03-07T04:19:52;4.80;99.90
3816;DHT22;1923;48.154;11.536;2023-03-07T04:22:20;4.80;99.90
3816;DHT22;1923;48.154;11.536;2023-03-07T04:24:49;4.80;99.90
3816;DHT22;1923;48.154;11.536;2023-03-07T04:27:17;4.80;99.90
3816;DHT22;1923;48.154;11.536;2023-03-07T04:29:45;4.70;99.90
3816;DHT22;1923;48.154;11.536;2023-03-07T04:32:13;4.70;99.90
3816;DHT22;1923;48.154;11.536;2023-03-07T04:34:41;4.80;99.90
3816;DHT22;1923;48.154;11.536;2023-03-07T04:37:09;4.80;99.90
3816;DHT22;1923;48.154;11.536;2023-03-07T04:39:37;4.70;99.90
3816;DHT22;1923;48.154;11.536;2023-03-07T04:42:07;4.70;99.90
3816;DHT22;1923;48.154;11.536;2023-03-07T04:44:35;4.60;99.90
3816;DHT22;1923;48.154;11.536;2023-03-07T04:47:03;4.50;99.90
3816;DHT22;1923;48.154;11.536;2023-03-07T04:49:31;4.60;99.90
3816;DHT22;1923;48.154;11.536;2023-03-07T04:51:59;4.40;99.90
3816;DHT22;1923;48.154;11.536;2023-03-07T04:54:27;4.40;99.90
3816;DHT22;1923;48.154;11.536;2023-03-07T04:56:55;4.30;99.90
3816;DHT22;1923;48.154;11.536;2023-03-07T04:59:25;4.10;99.90
3816;DHT22;1923;48.154;11.536;2023-03-07T05:01:53;4.20;99.90
3816;DHT22;1923;48.154;11.536;2023-03-07T05:04:21;4.10;99.90
3816;DHT22;1923;48.154;11.536;2023-03-07T05:06:49;4.00;99.90
3816;DHT22;1923;48.154;11.536;2023-03-07T05:09:18;4.10;99.90
3816;DHT22;1923;48.154;11.536;2023-03-07T05:11:46;3.90;99.90
3816;DHT22;1923;48.154;11.536;2023-03-07T05:14:14;4.00;99.90
3816;DHT22;1923;48.154;11.536;2023-03-07T05:16:43;3.80;99.90
3816;DHT22;1923;48.154;11.536;2023-03-07T05:19:11;3.90;99.90
3816;DHT22;1923;48.154;11.536;2023-03-07T05:21:40;3.90;99.90
3816;DHT22;1923;48.154;11.536;2023-03-07T05:24:09;3.90;99.90
3816;DHT22;1923;48.154;11.536;2023-03-07T05:26:37;3.80;99.90
3816;DHT22;1923;48.154;11.536;2023-03-07T05:29:06;3.80;99.90
3816;DHT22;1923;48.154;11.536;2023-03-07T05:31:34;3.80;99.90
3816;DHT22;1923;48.154;11.536;2023-03-07T05:34:04;3.80;99.90
3816;DHT22;1923;48.154;11.536;2023-03-07T05:36:32;3.80;99.90
3816;DHT22;1923;48.154;11.536;2023-03-07T05:39:00;3.70;99.90
3816;DHT22;1923;48.154;11.536;2023-03-07T05:41:28;3.70;99.90
3816;DHT22;1923;48.154;11.536;2023-03-07T05:43:56;3.60;99.90
3816;DHT22;1923;48.154;11.536;2023-03-07T05:46:24;3.60;99.90
3816;DHT22;1923;48.154;11.536;2023-03-07T05:48:52;3.50;99.90
3816;DHT22;1923;48.154;11.536;2023-03-07T05:51:22;3.60;99.90
3816;DHT22;1923;48.154;11.536;2023-03-07T05:53:50;3.60;99.90
3816;DHT22;1923;48.154;11.536;2023-03-07T05:56:18;3.50;99.90
3816;DHT22;1923;48.154;11.536;2023-03-07T05:58:46;3.50;99.90
3816;DHT22;1923;48.154;11.536;2023-03-07T06:01:14;3.50;99.90
3816;DHT22;1923;48.154;11.536;2023-03-07T06:03:42;3.40;99.90
3816;DHT22;1923;48.154;11.536;2023-03-07T06:06:10;3.50;99.90
3816;DHT22;1923;48.154;11.536;2023-03-07T06:08:40;3.40;99.90
3816;DHT22;1923;48.154;11.536;2023-03-07T06:11:08;3.50;99.90
3816;DHT22;1923;48.154;11.536;2023-03-07T06:13:36;3.50;99.90
3816;DHT22;1923;48.154;11.536;2023-03-07T06:16:05;3.60;99.90
3816;DHT22;1923;48.154;11.536;2023-03-07T06:18:33;3.50;99.90
3816;DHT22;1923;48.154;11.536;2023-03-07T06:21:03;3.60;99.90
3816;DHT22;1923;48.154;11.536;2023-03-07T06:23:32;3.60;99.90
3816;DHT22;1923;48.154;11.536;2023-03-07T06:26:02;3.60;99.90
3816;DHT22;1923;48.154;11.536;2023-03-07T06:28:30;3.60;99.90
3816;DHT22;1923;48.154;11.536;2023-03-07T06:30:59;3.80;99.90
3816;DHT22;1923;48.154;11.536;2023-03-07T06:33:27;3.90;99.90
3816;DHT22;1923;48.154;11.536;2023-03-07T06:35:55;3.90;99.90
3816;DHT22;1923;48.154;11.536;2023-03-07T06:38:24;3.90;99.90
3816;DHT22;1923;48.154;11.536;2023-03-07T06:40:54;4.10;99.90
3816;DHT22;1923;48.154;11.536;2023-03-07T06:43:24;4.20;99.90
3816;DHT22;1923;48.154;11.536;2023-03-07T06:45:52;4.30;99.90
3816;DHT22;1923;48.154;11.536;2023-03-07T06:48:20;4.50;99.90
3816;DHT22;1923;48.154;11.536;2023-03-07T06:50:48;4.60;99.90
3816;DHT22;1923;48.154;11.536;2023-03-07T06:53:16;4.80;99.90
3816;DHT22;1923;48.154;11.536;2023-03-07T06:55:47;5.10;99.90
3816;DHT22;1923;48.154;11.536;2023-03-07T06:58:16;5.40;99.90
3816;DHT22;1923;48.154;11.536;2023-03-07T07:00:46;5.40;99.90
3816;DHT22;1923;48.154;11.536;2023-03-07T07:03:14;5.60;99.90
3816;DHT22;1923;48.154;11.536;2023-03-07T07:05:43;5.80;99.90
3816;DHT22;1923;48.154;11.536;2023-03-07T07:08:11;5.80;99.90
3816;DHT22;1923;48.154;11.536;2023-03-07T07:10:39;6.00;99.90
3816;DHT22;1923;48.154;11.536;2023-03-07T07:13:08;6.10;99.90
3816;DHT22;1923;48.154;11.536;2023-03-07T07:15:38;6.30;99.90
3816;DHT22;1923;48.154;11.536;2023-03-07T07:18:10;6.50;99.90
3816;DHT22;1923;48.154;11.536;2023-03-07T07:20:38;6.60;99.90
3816;DHT22;1923;48.154;11.536;2023-03-07T07:23:06;6.90;99.90
3816;DHT22;1923;48.154;11.536;2023-03-07T07:25:36;7.30;99.90
3816;DHT22;1923;48.154;11.536;2023-03-07T07:28:04;7.60;99.90
3816;DHT22;1923;48.154;11.536;2023-03-07T07:30:32;7.80;99.90
3816;DHT22;1923;48.154;11.536;2023-03-07T07:33:02;8.00;99.90
3816;DHT22;1923;48.154;11.536;2023-03-07T07:35:31;8.20;99.90
3816;DHT22;1923;48.154;11.536;2023-03-07T07:38:00;8.40;99.90
3816;DHT22;1923;48.154;11.536;2023-03-07T07:40:29;8.40;99.90
3816;DHT22;1923;48.154;11.536;2023-03-07T07:42:57;8.60;99.90
3816;DHT22;1923;48.154;11.536;2023-03-07T07:45:25;8.80;99.90
3816;DHT22;1923;48.154;11.536;2023-03-07T07:47:53;9.00;99.90
3816;DHT22;1923;48.154;11.536;2023-03-07T07:50:22;9.30;99.80
3816;DHT22;1923;48.154;11.536;2023-03-07T07:52:53;9.60;99.60
3816;DHT22;1923;48.154;11.536;2023-03-07T07:55:21;9.60;99.20
3816;DHT22;1923;48.154;11.536;2023-03-07T07:57:50;9.80;99.00
3816;DHT22;1923;48.154;11.536;2023-03-07T08:00:19;10.00;98.00
3816;DHT22;1923;48.154;11.536;2023-03-07T08:02:48;10.00;97.80
3816;DHT22;1923;48.154;11.536;2023-03-07T08:05:17;10.20;97.60
3816;DHT22;1923;48.154;11.536;2023-03-07T08:07:45;10.30;97.30
3816;DHT22;1923;48.154;11.536;2023-03-07T08:10:15;10.30;97.10
3816;DHT22;1923;48.154;11.536;2023-03-07T08:12:43;10.10;96.90
3816;DHT22;1923;48.154;11.536;2023-03-07T08:15:12;10.30;96.60
3816;DHT22;1923;48.154;11.536;2023-03-07T08:17:42;10.60;96.30
3816;DHT22;1923;48.154;11.536;2023-03-07T08:20:10;10.70;95.90
3816;DHT22;1923;48.154;11.536;2023-03-07T08:22:39;11.00;95.00
3816;DHT22;1923;48.154;11.536;2023-03-07T08:25:08;11.40;94.50
3816;DHT22;1923;48.154;11.536;2023-03-07T08:27:42;11.90;94.10
3816;DHT22;1923;48.154;11.536;2023-03-07T08:30:11;12.50;92.80
3816;DHT22;1923;48.154;11.536;2023-03-07T08:32:39;13.10;92.20
3816;DHT22;1923;48.154;11.536;2023-03-07T08:35:08;13.80;91.40
3816;DHT22;1923;48.154;11.536;2023-03-07T08:37:36;14.20;89.50
3816;DHT22;1923;48.154;11.536;2023-03-07T08:40:05;14.70;87.20
3816;DHT22;1923;48.154;11.536;2023-03-07T08:42:33;15.10;85.20
3816;DHT22;1923;48.154;11.536;2023-03-07T08:45:03;14.90;82.80
3816;DHT22;1923;48.154;11.536;2023-03-07T08:47:31;14.20;82.30
3816;DHT22;1923;48.154;11.536;2023-03-07T08:49:59;13.70;83.00
3816;DHT22;1923;48.154;11.536;2023-03-07T08:52:27;13.60;82.30
3816;DHT22;1923;48.154;11.536;2023-03-07T08:54:55;13.90;82.20
3816;DHT22;1923;48.154;11.536;2023-03-07T08:57:23;14.10;80.80
3816;DHT22;1923;48.154;11.536;2023-03-07T08:59:51;14.30;79.30
3816;DHT22;1923;48.154;11.536;2023-03-07T09:02:21;14.80;78.20
3816;DHT22;1923;48.154;11.536;2023-03-07T09:04:49;15.00;77.20
3816;DHT22;1923;48.154;11.536;2023-03-07T09:07:17;15.30;75.60
3816;DHT22;1923;48.154;11.536;2023-03-07T09:09:45;15.80;74.90
3816;DHT22;1923;48.154;11.536;2023-03-07T09:12:13;16.00;73.80
3816;DHT22;1923;48.154;11.536;2023-03-07T09:14:41;15.80;73.70
3816;DHT22;1923;48.154;11.536;2023-03-07T09:17:09;15.50;73.30
3816;DHT22;1923;48.154;11.536;2023-03-07T09:19:38;14.60;73.40
3816;DHT22;1923;48.154;11.536;2023-03-07T09:22:08;14.40;73.80
3816;DHT22;1923;48.154;11.536;2023-03-07T09:24:36;14.40;74.10
3816;DHT22;1923;48.154;11.536;2023-03-07T09:27:04;14.40;74.40
3816;DHT22;1923;48.154;11.536;2023-03-07T09:29:32;14.10;73.90
3816;DHT22;1923;48.154;11.536;2023-03-07T09:32:01;14.00;73.80
3816;DHT22;1923;48.154;11.536;2023-03-07T09:34:30;14.10;74.70
3816;DHT22;1923;48.154;11.536;2023-03-07T09:37:00;14.30;74.40
3816;DHT22;1923;48.154;11.536;2023-03-07T09:39:28;14.70;73.90
3816;DHT22;1923;48.154;11.536;2023-03-07T09:42:04;15.00;72.50
3816;DHT22;1923;48.154;11.536;2023-03-07T09:44:56;15.30;70.70
3816;DHT22;1923;48.154;11.536;2023-03-07T09:47:40;15.30;70.80
3816;DHT22;1923;48.154;11.536;2023-03-07T09:50:18;15.80;69.30
3816;DHT22;1923;48.154;11.536;2023-03-07T09:52:52;16.10;68.70
3816;DHT22;1923;48.154;11.536;2023-03-07T09:55:24;16.60;68.30
3816;DHT22;1923;48.154;11.536;2023-03-07T09:57:56;16.30;65.20
3816;DHT22;1923;48.154;11.536;2023-03-07T10:00:28;16.10;66.50
3816;DHT22;1923;48.154;11.536;2023-03-07T10:03:07;16.10;65.90
3816;DHT22;1923;48.154;11.536;2023-03-07T10:05:42;16.20;66.40
3816;DHT22;1923;48.154;11.536;2023-03-07T10:08:15;15.70;65.80
3816;DHT22;1923;48.154;11.536;2023-03-07T10:10:51;15.60;66.60
3816;DHT22;1923;48.154;11.536;2023-03-07T10:13:38;15.80;66.10
3816;DHT22;1923;48.154;11.536;2023-03-07T10:16:17;15.40;65.60
3816;DHT22;1923;48.154;11.536;2023-03-07T10:18:57;15.00;65.50
3816;DHT22;1923;48.154;11.536;2023-03-07T10:21:35;14.60;67.10
3816;DHT22;1923;48.154;11.536;2023-03-07T10:24:33;14.90;67.40
3816;DHT22;1923;48.154;11.536;2023-03-07T10:27:06;14.90;66.50
3816;DHT22;1923;48.154;11.536;2023-03-07T10:29:39;14.90;66.60
3816;DHT22;1923;48.154;11.536;2023-03-07T10:32:19;14.80;67.30
3816;DHT22;1923;48.154;11.536;2023-03-07T10:34:52;15.50;66.30
3816;DHT22;1923;48.154;11.536;2023-03-07T10:37:28;16.00;64.40
3816;DHT22;1923;48.154;11.536;2023-03-07T10:39:59;17.20;64.10
3816;DHT22;1923;48.154;11.536;2023-03-07T10:42:34;18.20;61.70
3816;DHT22;1923;48.154;11.536;2023-03-07T10:45:06;18.90;59.10
3816;DHT22;1923;48.154;11.536;2023-03-07T10:47:35;19.30;58.10
3816;DHT22;1923;48.154;11.536;2023-03-07T10:50:14;19.80;57.90
3816;DHT22;1923;48.154;11.536;2023-03-07T10:52:47;20.40;56.00
3816;DHT22;1923;48.154;11.536;2023-03-07T10:55:38;21.10;54.10
3816;DHT22;1923;48.154;11.536;2023-03-07T10:58:13;21.20;52.60
3816;DHT22;1923;48.154;11.536;2023-03-07T11:00:42;21.90;51.90
3816;DHT22;1923;48.154;11.536;2023-03-07T11:03:24;22.30;50.20
3816;DHT22;1923;48.154;11.536;2023-03-07T11:05:53;21.90;48.30
3816;DHT22;1923;48.154;11.536;2023-03-07T11:08:29;22.10;49.40
3816;DHT22;1923;48.154;11.536;2023-03-07T11:10:59;22.30;49.00
3816;DHT22;1923;48.154;11.536;2023-03-07T11:13:28;22.60;47.70
3816;DHT22;1923;48.154;11.536;2023-03-07T11:16:21;22.60;46.80
3816;DHT22;1923;48.154;11.536;2023-03-07T11:18:51;22.40;46.80
3816;DHT22;1923;48.154;11.536;2023-03-07T11:21:28;22.20;46.80
3816;DHT22;1923;48.154;11.536;2023-03-07T11:23:58;22.00;46.90
3816;DHT22;1923;48.154;11.536;2023-03-07T11:26:30;21.70;46.80
3816;DHT22;1923;48.154;11.536;2023-03-07T11:29:06;22.20;46.40
3816;DHT22;1923;48.154;11.536;2023-03-07T11:31:46;21.80;46.30
3816;DHT22;1923;48.154;11.536;2023-03-07T11:34:26;20.70;46.80
3816;DHT22;1923;48.154;11.536;2023-03-07T11:37:01;19.10;48.30
3816;DHT22;1923;48.154;11.536;2023-03-07T11:39:35;17.80;49.80
3816;DHT22;1923;48.154;11.536;2023-03-07T11:42:12;16.60;51.00
3816;DHT22;1923;48.154;11.536;2023-03-07T11:44:46;15.50;52.40
3816;DHT22;1923;48.154;11.536;2023-03-07T11:47:35;14.50;53.50
3816;DHT22;1923;48.154;11.536;2023-03-07T11:50:15;13.60;55.00
3816;DHT22;1923;48.154;11.536;2023-03-07T11:53:06;13.40;56.40
3816;DHT22;1923;48.154;11.536;2023-03-07T11:55:40;13.10;57.00
3816;DHT22;1923;48.154;11.536;2023-03-07T11:58:26;12.70;57.00
3816;DHT22;1923;48.154;11.536;2023-03-07T12:01:06;11.90;58.40
3816;DHT22;1923;48.154;11.536;2023-03-07T12:03:54;11.70;59.50
3816;DHT22;1923;48.154;11.536;2023-03-07T12:06:34;11.60;60.70
3816;DHT22;1923;48.154;11.536;2023-03-07T12:09:22;11.50;60.50
3816;DHT22;1923;48.154;11.536;2023-03-07T12:12:15;11.40;60.80
3816;DHT22;1923;48.154;11.536;2023-03-07T12:14:53;11.40;60.80
3816;DHT22;1923;48.154;11.536;2023-03-07T12:17:34;11.30;60.90
3816;DHT22;1923;48.154;11.536;2023-03-07T12:20:22;11.10;61.20
3816;DHT22;1923;48.154;11.536;2023-03-07T12:23:00;10.90;62.80
3816;DHT22;1923;48.154;11.536;2023-03-07T12:25:32;10.80;63.60
3816;DHT22;1923;48.154;11.536;2023-03-07T12:28:05;10.60;64.10
3816;DHT22;1923;48.154;11.536;2023-03-07T12:30:52;10.60;64.70
3816;DHT22;1923;48.154;11.536;2023-03-07T12:33:29;10.60;64.40
3816;DHT22;1923;48.154;11.536;2023-03-07T12:36:06;10.50;65.40
3816;DHT22;1923;48.154;11.536;2023-03-07T12:38:39;10.60;65.30
3816;DHT22;1923;48.154;11.536;2023-03-07T12:41:19;10.50;64.90
3816;DHT22;1923;48.154;11.536;2023-03-07T12:43:53;10.50;66.20
3816;DHT22;1923;48.154;11.536;2023-03-07T12:46:33;10.50;65.90
3816;DHT22;1923;48.154;11.536;2023-03-07T12:49:09;10.50;66.50
3816;DHT22;1923;48.154;11.536;2023-03-07T12:51:46;10.60;67.40
3816;DHT22;1923;48.154;11.536;2023-03-07T12:54:21;10.70;67.80
3816;DHT22;1923;48.154;11.536;2023-03-07T12:56:53;10.60;67.50
3816;DHT22;1923;48.154;11.536;2023-03-07T12:59:22;10.60;67.90
3816;DHT22;1923;48.154;11.536;2023-03-07T13:01:57;10.50;68.60
3816;DHT22;1923;48.154;11.536;2023-03-07T13:04:31;10.60;67.90
3816;DHT22;1923;48.154;11.536;2023-03-07T13:07:05;10.60;66.80
3816;DHT22;1923;48.154;11.536;2023-03-07T13:09:37;10.40;67.10
3816;DHT22;1923;48.154;11.536;2023-03-07T13:12:30;10.30;67.90
3816;DHT22;1923;48.154;11.536;2023-03-07T13:15:00;10.40;69.40
3816;DHT22;1923;48.154;11.536;2023-03-07T13:17:55;10.50;69.40
3816;DHT22;1923;48.154;11.536;2023-03-07T13:20:42;10.20;69.60
3816;DHT22;1923;48.154;11.536;2023-03-07T13:23:26;10.20;70.00
3816;DHT22;1923;48.154;11.536;2023-03-07T13:25:59;10.10;70.00
3816;DHT22;1923;48.154;11.536;2023-03-07T13:28:44;10.10;69.30
3816;DHT22;1923;48.154;11.536;2023-03-07T13:31:38;10.20;69.20
3816;DHT22;1923;48.154;11.536;2023-03-07T13:34:42;10.10;68.10
3816;DHT22;1923;48.154;11.536;2023-03-07T13:43:56;10.30;69.10
3816;DHT22;1923;48.154;11.536;2023-03-07T13:49:44;10.40;69.70
3816;DHT22;1923;48.154;11.536;2023-03-07T13:55:25;10.60;68.70
3816;DHT22;1923;48.154;11.536;2023-03-07T13:57:55;10.60;69.00
3816;DHT22;1923;48.154;11.536;2023-03-07T14:00:30;10.70;68.70
3816;DHT22;1923;48.154;11.536;2023-03-07T14:03:00;10.90;68.40
3816;DHT22;1923;48.154;11.536;2023-03-07T14:05:32;10.90;67.70
3816;DHT22;1923;48.154;11.536;2023-03-07T14:08:01;10.90;67.90
3816;DHT22;1923;48.154;11.536;2023-03-07T14:10:30;10.80;68.40
3816;DHT22;1923;48.154;11.536;2023-03-07T14:13:13;10.70;68.70
3816;DHT22;1923;48.154;11.536;2023-03-07T14:15:56;10.70;68.10
3816;DHT22;1923;48.154;11.536;2023-03-07T14:18:39;10.80;68.50
3816;DHT22;1923;48.154;11.536;2023-03-07T14:21:13;10.90;68.00
3816;DHT22;1923;48.154;11.536;2023-03-07T14:26:42;10.90;68.10
3816;DHT22;1923;48.154;11.536;2023-03-07T14:29:15;10.90;68.30
3816;DHT22;1923;48.154;11.536;2023-03-07T14:31:46;10.90;68.50
3816;DHT22;1923;48.154;11.536;2023-03-07T14:34:16;10.90;68.20
3816;DHT22;1923;48.154;11.536;2023-03-07T14:36:48;10.90;68.10
3816;DHT22;1923;48.154;11.536;2023-03-07T14:39:19;10.80;68.20
3816;DHT22;1923;48.154;11.536;2023-03-07T14:41:54;10.80;68.00
3816;DHT22;1923;48.154;11.536;2023-03-07T14:44:45;10.80;68.30
3816;DHT22;1923;48.154;11.536;2023-03-07T14:47:28;10.70;67.20
3816;DHT22;1923;48.154;11.536;2023-03-07T14:50:06;10.80;66.40
3816;DHT22;1923;48.154;11.536;2023-03-07T14:52:36;10.80;65.50
3816;DHT22;1923;48.154;11.536;2023-03-07T14:55:06;10.80;65.80
3816;DHT22;1923;48.154;11.536;2023-03-07T14:57:42;10.70;65.40
3816;DHT22;1923;48.154;11.536;2023-03-07T15:00:20;10.60;65.30
3816;DHT22;1923;48.154;11.536;2023-03-07T15:02:50;10.50;66.20
3816;DHT22;1923;48.154;11.536;2023-03-07T15:05:20;10.60;66.60
3816;DHT22;1923;48.154;11.536;2023-03-07T15:07:50;10.70;66.30
3816;DHT22;1923;48.154;11.536;2023-03-07T15:10:24;10.80;65.60
3816;DHT22;1923;48.154;11.536;2023-03-07T15:12:54;10.80;65.30
3816;DHT22;1923;48.154;11.536;2023-03-07T15:15:30;10.70;64.40
3816;DHT22;1923;48.154;11.536;2023-03-07T15:18:03;10.70;64.60
3816;DHT22;1923;48.154;11.536;2023-03-07T15:20:33;10.60;64.30
3816;DHT22;1923;48.154;11.536;2023-03-07T15:23:04;10.40;64.50
3816;DHT22;1923;48.154;11.536;2023-03-07T15:25:34;10.20;64.40
3816;DHT22;1923;48.154;11.536;2023-03-07T15:28:06;10.10;64.90
3816;DHT22;1923;48.154;11.536;2023-03-07T15:30:46;10.00;64.90
3816;DHT22;1923;48.154;11.536;2023-03-07T15:33:22;10.10;65.40
3816;DHT22;1923;48.154;11.536;2023-03-07T15:36:15;9.90;66.60
3816;DHT22;1923;48.154;11.536;2023-03-07T15:38:46;9.90;67.00
3816;DHT22;1923;48.154;11.536;2023-03-07T15:41:31;10.00;66.40
3816;DHT22;1923;48.154;11.536;2023-03-07T15:44:16;9.80;68.30
3816;DHT22;1923;48.154;11.536;2023-03-07T15:46:46;9.70;68.20
3816;DHT22;1923;48.154;11.536;2023-03-07T15:49:21;9.70;68.60
3816;DHT22;1923;48.154;11.536;2023-03-07T15:51:51;9.60;68.40
3816;DHT22;1923;48.154;11.536;2023-03-07T15:54:29;9.60;69.40
3816;DHT22;1923;48.154;11.536;2023-03-07T15:57:01;9.50;69.40
3816;DHT22;1923;48.154;11.536;2023-03-07T15:59:33;9.50;69.60
3816;DHT22;1923;48.154;11.536;2023-03-07T16:02:37;9.50;69.70
3816;DHT22;1923;48.154;11.536;2023-03-07T16:05:30;9.50;69.70
3816;DHT22;1923;48.154;11.536;2023-03-07T16:07:58;9.30;69.70
3816;DHT22;1923;48.154;11.536;2023-03-07T16:10:29;9.20;70.20
3816;DHT22;1923;48.154;11.536;2023-03-07T16:12:59;9.10;70.30
3816;DHT22;1923;48.154;11.536;2023-03-07T16:15:28;8.90;70.20
3816;DHT22;1923;48.154;11.536;2023-03-07T16:17:55;8.90;70.30
3816;DHT22;1923;48.154;11.536;2023-03-07T16:20:26;8.80;70.70
3816;DHT22;1923;48.154;11.536;2023-03-07T16:22:54;8.70;71.20
3816;DHT22;1923;48.154;11.536;2023-03-07T16:25:26;8.70;71.40
3816;DHT22;1923;48.154;11.536;2023-03-07T16:27:58;8.70;71.50
3816;DHT22;1923;48.154;11.536;2023-03-07T16:30:27;8.60;72.00
3816;DHT22;1923;48.154;11.536;2023-03-07T16:32:55;8.70;71.90
3816;DHT22;1923;48.154;11.536;2023-03-07T16:35:26;8.70;71.20
3816;DHT22;1923;48.154;11.536;2023-03-07T16:37:54;8.60;71.30
3816;DHT22;1923;48.154;11.536;2023-03-07T16:40:22;8.50;71.80